BAW62N EGLL-ENTC
Flight info
| Callsign | BAW62N |
|---|---|
| Flight time | N/A |
| Altitude | 37000 |
| Route | BPK Q295 PAAVO M604 GIVPO DCT VENAS DCT LARGA DCT PENUN DCT BEDVI DCT ODNOS DCT DISMU DCT PENNO DCT ATWEG |
| Aircraft | A320/M-SDE3FGHIRWY/LB1 |
Departure
| Time | 2026-05-04 17:10 |
|---|---|
| Airport | London Heathrow Airport (EGLL) |
Arrival
| Time | N/A |
|---|---|
| Airport | Tromsø Airport (ENTC) |
| Time | Latitude | Longitude | Altitude | Speed | Heading |
|---|---|---|---|---|---|
| 2026-05-04 16:20 | 51.46930 | -0.48787 | 86 ft | 0 kts | 359° |
| 2026-05-04 16:57 | 51.46900 | -0.48787 | 86 ft | 2 kts | 360° |
| 2026-05-04 16:58 | 51.46876 | -0.48777 | 86 ft | 0 kts | 90° |
| 2026-05-04 17:00 | 51.46876 | -0.48720 | 86 ft | 6 kts | 90° |
| 2026-05-04 17:01 | 51.46877 | -0.48605 | 86 ft | 2 kts | 89° |
| 2026-05-04 17:01 | 51.46881 | -0.48497 | 86 ft | 8 kts | 71° |
| 2026-05-04 17:02 | 51.47017 | -0.48471 | 86 ft | 13 kts | 360° |
| 2026-05-04 17:02 | 51.47236 | -0.48473 | 86 ft | 18 kts | 359° |
| 2026-05-04 17:03 | 51.47365 | -0.48474 | 87 ft | 18 kts | 360° |
| 2026-05-04 17:03 | 51.47491 | -0.48475 | 86 ft | 17 kts | 360° |
| 2026-05-04 17:03 | 51.47578 | -0.48307 | 91 ft | 14 kts | 89° |
| 2026-05-04 17:04 | 51.47579 | -0.47954 | 90 ft | 18 kts | 90° |
| 2026-05-04 17:04 | 51.47581 | -0.47500 | 89 ft | 22 kts | 89° |
| 2026-05-04 17:05 | 51.47583 | -0.47026 | 88 ft | 16 kts | 90° |
| 2026-05-04 17:05 | 51.47592 | -0.46705 | 87 ft | 14 kts | 89° |
| 2026-05-04 17:06 | 51.47594 | -0.46336 | 89 ft | 19 kts | 90° |
| 2026-05-04 17:06 | 51.47595 | -0.46113 | 86 ft | 21 kts | 89° |
| 2026-05-04 17:07 | 51.47596 | -0.45600 | 88 ft | 25 kts | 90° |
| 2026-05-04 17:07 | 51.47598 | -0.45413 | 86 ft | 26 kts | 89° |
| 2026-05-04 17:07 | 51.47599 | -0.45064 | 86 ft | 23 kts | 89° |
| 2026-05-04 17:07 | 51.47599 | -0.44793 | 86 ft | 25 kts | 90° |
| 2026-05-04 17:08 | 51.47600 | -0.44503 | 90 ft | 27 kts | 90° |
| 2026-05-04 17:08 | 51.47592 | -0.44167 | 88 ft | 16 kts | 90° |
| 2026-05-04 17:08 | 51.47593 | -0.43989 | 86 ft | 16 kts | 89° |
| 2026-05-04 17:09 | 51.47595 | -0.43804 | 91 ft | 14 kts | 80° |
| 2026-05-04 17:09 | 51.47678 | -0.43799 | 86 ft | 15 kts | 330° |
| 2026-05-04 17:09 | 51.47747 | -0.43865 | 87 ft | 9 kts | 329° |
| 2026-05-04 17:10 | 51.47765 | -0.44574 | 89 ft | 86 kts | 269° |
| 2026-05-04 17:10 | 51.47763 | -0.49391 | 832 ft | 164 kts | 271° |
| 2026-05-04 17:11 | 51.47739 | -0.51236 | 1391 ft | 166 kts | 270° |
| 2026-05-04 17:11 | 51.47704 | -0.53084 | 1893 ft | 167 kts | 270° |
| 2026-05-04 17:11 | 51.48275 | -0.56885 | 2683 ft | 186 kts | 294° |
| 2026-05-04 17:12 | 51.48773 | -0.58863 | 3141 ft | 195 kts | 293° |
| 2026-05-04 17:12 | 51.49807 | -0.63047 | 4165 ft | 211 kts | 296° |
| 2026-05-04 17:13 | 51.53537 | -0.67613 | 5498 ft | 261 kts | 351° |
| 2026-05-04 17:14 | 51.58267 | -0.63580 | 6440 ft | 274 kts | 63° |
| 2026-05-04 17:14 | 51.59098 | -0.60786 | 7199 ft | 275 kts | 65° |
| 2026-05-04 17:14 | 51.60709 | -0.55185 | 8767 ft | 283 kts | 61° |
| 2026-05-04 17:15 | 51.61768 | -0.52469 | 9446 ft | 289 kts | 55° |
| 2026-05-04 17:15 | 51.63824 | -0.46742 | 10465 ft | 315 kts | 62° |
| 2026-05-04 17:16 | 51.65947 | -0.40174 | 11348 ft | 339 kts | 64° |
| 2026-05-04 17:16 | 51.69135 | -0.29806 | 13322 ft | 349 kts | 65° |
| 2026-05-04 17:17 | 51.70216 | -0.26269 | 13958 ft | 353 kts | 65° |
| 2026-05-04 17:17 | 51.73504 | -0.15506 | 15778 ft | 361 kts | 65° |
| 2026-05-04 17:18 | 51.74557 | -0.11807 | 16346 ft | 364 kts | 71° |
| 2026-05-04 17:18 | 51.75554 | -0.03779 | 17476 ft | 367 kts | 84° |
| 2026-05-04 17:19 | 51.76239 | 0.04461 | 18586 ft | 374 kts | 84° |
| 2026-05-04 17:19 | 51.76931 | 0.12906 | 19490 ft | 386 kts | 84° |
| 2026-05-04 17:20 | 51.77642 | 0.21595 | 20467 ft | 394 kts | 83° |
| 2026-05-04 17:20 | 51.78361 | 0.30400 | 21413 ft | 402 kts | 84° |
| 2026-05-04 17:20 | 51.78721 | 0.34895 | 21872 ft | 405 kts | 84° |
| 2026-05-04 17:21 | 51.79443 | 0.43944 | 22769 ft | 413 kts | 84° |
| 2026-05-04 17:21 | 51.80176 | 0.53217 | 23646 ft | 420 kts | 84° |
| 2026-05-04 17:22 | 51.80542 | 0.57915 | 24082 ft | 423 kts | 84° |
| 2026-05-04 17:22 | 51.80935 | 0.62648 | 24496 ft | 426 kts | 81° |
| 2026-05-04 17:23 | 51.84001 | 0.76288 | 25707 ft | 435 kts | 68° |
| 2026-05-04 17:23 | 51.85216 | 0.80789 | 26102 ft | 438 kts | 64° |
| 2026-05-04 17:23 | 51.88758 | 0.88837 | 26850 ft | 443 kts | 45° |
| 2026-05-04 17:24 | 51.91028 | 0.92208 | 27199 ft | 445 kts | 41° |
| 2026-05-04 17:24 | 51.97995 | 1.02347 | 28217 ft | 452 kts | 42° |
| 2026-05-04 17:25 | 52.00337 | 1.05776 | 28550 ft | 454 kts | 42° |
| 2026-05-04 17:25 | 52.05016 | 1.12603 | 29301 ft | 454 kts | 39° |
| 2026-05-04 17:26 | 52.10099 | 1.18864 | 29974 ft | 457 kts | 37° |
| 2026-05-04 17:26 | 52.17584 | 1.28495 | 30921 ft | 461 kts | 40° |
| 2026-05-04 17:27 | 52.22460 | 1.35289 | 31697 ft | 459 kts | 41° |
| 2026-05-04 17:27 | 52.27328 | 1.42043 | 32426 ft | 459 kts | 40° |
| 2026-05-04 17:28 | 52.32229 | 1.48737 | 33139 ft | 459 kts | 40° |
| 2026-05-04 17:29 | 52.38288 | 1.58453 | 34069 ft | 458 kts | 46° |
| 2026-05-04 17:29 | 52.44952 | 1.69661 | 35013 ft | 457 kts | 46° |
| 2026-05-04 17:30 | 52.51591 | 1.80886 | 35890 ft | 456 kts | 46° |
| 2026-05-04 17:31 | 52.55999 | 1.88389 | 36412 ft | 456 kts | 46° |
| 2026-05-04 17:31 | 52.62600 | 1.99628 | 37039 ft | 453 kts | 46° |
| 2026-05-04 17:32 | 52.66969 | 2.07078 | 37041 ft | 452 kts | 46° |
| 2026-05-04 17:33 | 52.75664 | 2.22047 | 37045 ft | 451 kts | 46° |
| 2026-05-04 17:34 | 52.84307 | 2.36991 | 37048 ft | 451 kts | 46° |
| 2026-05-04 17:35 | 52.95115 | 2.55798 | 37055 ft | 450 kts | 46° |
| 2026-05-04 17:36 | 52.99789 | 2.62671 | 37052 ft | 449 kts | 32° |
| 2026-05-04 17:36 | 53.05310 | 2.67494 | 37050 ft | 448 kts | 25° |
| 2026-05-04 17:37 | 53.10890 | 2.72110 | 37051 ft | 448 kts | 25° |
| 2026-05-04 17:37 | 53.16429 | 2.76720 | 37052 ft | 448 kts | 26° |
| 2026-05-04 17:38 | 53.22005 | 2.81390 | 37055 ft | 448 kts | 26° |
| 2026-05-04 17:38 | 53.27569 | 2.86054 | 37051 ft | 447 kts | 26° |
| 2026-05-04 17:39 | 53.36020 | 2.92655 | 37051 ft | 447 kts | 22° |
| 2026-05-04 17:39 | 53.41718 | 2.96802 | 37054 ft | 446 kts | 22° |
| 2026-05-04 17:40 | 53.47390 | 3.00998 | 37057 ft | 446 kts | 23° |
| 2026-05-04 17:40 | 53.53053 | 3.05279 | 37056 ft | 446 kts | 23° |
| 2026-05-04 17:41 | 53.58700 | 3.09590 | 37059 ft | 446 kts | 23° |
| 2026-05-04 17:41 | 53.64356 | 3.13912 | 37059 ft | 446 kts | 23° |
| 2026-05-04 17:42 | 53.69967 | 3.18188 | 37063 ft | 446 kts | 23° |
| 2026-05-04 17:42 | 53.75619 | 3.22514 | 37066 ft | 446 kts | 23° |
| 2026-05-04 17:43 | 53.81269 | 3.26848 | 37069 ft | 446 kts | 23° |
| 2026-05-04 17:43 | 53.86915 | 3.31188 | 37070 ft | 446 kts | 23° |
| 2026-05-04 17:44 | 53.92557 | 3.35545 | 37071 ft | 446 kts | 23° |
| 2026-05-04 17:44 | 53.98210 | 3.39915 | 37073 ft | 446 kts | 23° |
| 2026-05-04 17:45 | 54.03842 | 3.44286 | 37075 ft | 445 kts | 23° |
| 2026-05-04 17:45 | 54.09477 | 3.48676 | 37075 ft | 445 kts | 23° |
| 2026-05-04 17:46 | 54.15092 | 3.53073 | 37073 ft | 444 kts | 23° |
| 2026-05-04 17:46 | 54.20711 | 3.57486 | 37072 ft | 445 kts | 23° |
| 2026-05-04 17:47 | 54.26341 | 3.61913 | 37072 ft | 444 kts | 23° |
| 2026-05-04 17:47 | 54.31913 | 3.66337 | 37072 ft | 444 kts | 24° |
| 2026-05-04 17:48 | 54.37463 | 3.71152 | 37072 ft | 445 kts | 26° |
| 2026-05-04 17:48 | 54.42884 | 3.76110 | 37071 ft | 444 kts | 26° |
| 2026-05-04 17:49 | 54.48354 | 3.81059 | 37070 ft | 444 kts | 26° |
| 2026-05-04 17:49 | 54.53841 | 3.85968 | 37069 ft | 444 kts | 26° |
| 2026-05-04 17:50 | 54.59335 | 3.90872 | 37070 ft | 444 kts | 26° |
| 2026-05-04 17:50 | 54.64819 | 3.95792 | 37070 ft | 444 kts | 26° |
| 2026-05-04 17:51 | 54.70295 | 4.00741 | 37068 ft | 444 kts | 26° |
| 2026-05-04 17:51 | 54.75776 | 4.05691 | 37063 ft | 444 kts | 25° |
| 2026-05-04 17:52 | 54.81255 | 4.10652 | 37063 ft | 444 kts | 25° |
| 2026-05-04 17:52 | 54.86850 | 4.15124 | 37064 ft | 441 kts | 14° |
| 2026-05-04 17:53 | 54.92830 | 4.17205 | 37064 ft | 438 kts | 6° |
| 2026-05-04 17:53 | 54.98850 | 4.18912 | 37065 ft | 438 kts | 7° |
| 2026-05-04 17:54 | 55.04863 | 4.20660 | 37067 ft | 438 kts | 7° |
| 2026-05-04 17:54 | 55.10872 | 4.22422 | 37069 ft | 438 kts | 7° |
| 2026-05-04 17:55 | 55.16877 | 4.24164 | 37069 ft | 437 kts | 6° |
| 2026-05-04 17:55 | 55.22880 | 4.25892 | 37070 ft | 437 kts | 6° |
| 2026-05-04 17:56 | 55.28877 | 4.27651 | 37071 ft | 437 kts | 6° |
| 2026-05-04 17:56 | 55.34870 | 4.29410 | 37072 ft | 437 kts | 6° |
| 2026-05-04 17:57 | 55.40831 | 4.31162 | 37072 ft | 437 kts | 6° |
| 2026-05-04 17:57 | 55.46816 | 4.32932 | 37074 ft | 436 kts | 6° |
| 2026-05-04 17:58 | 55.52803 | 4.34704 | 37074 ft | 435 kts | 6° |
| 2026-05-04 17:58 | 55.58776 | 4.36477 | 37072 ft | 435 kts | 6° |
| 2026-05-04 17:59 | 55.64753 | 4.38263 | 37073 ft | 435 kts | 6° |
| 2026-05-04 18:00 | 55.73708 | 4.40934 | 37073 ft | 435 kts | 6° |
| 2026-05-04 18:00 | 55.79668 | 4.42729 | 37073 ft | 435 kts | 6° |
| 2026-05-04 18:01 | 55.85635 | 4.44530 | 37072 ft | 435 kts | 6° |
| 2026-05-04 18:01 | 55.91606 | 4.46335 | 37071 ft | 435 kts | 6° |
| 2026-05-04 18:02 | 56.00558 | 4.49045 | 37069 ft | 434 kts | 6° |
| 2026-05-04 18:02 | 56.06475 | 4.50843 | 37063 ft | 434 kts | 6° |
| 2026-05-04 18:03 | 56.12422 | 4.52658 | 37056 ft | 434 kts | 6° |
| 2026-05-04 18:03 | 56.18375 | 4.54486 | 37056 ft | 434 kts | 6° |
| 2026-05-04 18:04 | 56.24331 | 4.56322 | 37058 ft | 434 kts | 6° |
| 2026-05-04 18:05 | 56.33274 | 4.59088 | 37060 ft | 434 kts | 6° |
| 2026-05-04 18:05 | 56.39232 | 4.60925 | 37056 ft | 434 kts | 6° |
| 2026-05-04 18:06 | 56.48170 | 4.63705 | 37049 ft | 435 kts | 6° |
| 2026-05-04 18:06 | 56.54129 | 4.65566 | 37053 ft | 435 kts | 6° |
| 2026-05-04 18:07 | 56.60055 | 4.67429 | 37046 ft | 435 kts | 6° |
| 2026-05-04 18:07 | 56.66015 | 4.69312 | 37042 ft | 435 kts | 5° |
| 2026-05-04 18:08 | 56.71986 | 4.71196 | 37039 ft | 435 kts | 5° |
| 2026-05-04 18:08 | 56.77956 | 4.73078 | 37039 ft | 435 kts | 5° |
| 2026-05-04 18:09 | 56.89878 | 4.76867 | 37025 ft | 435 kts | 5° |